Swartz Creek, Michigan
Current Conditions -  °F | °C
As of 4:53 PM on Sunday 25 Jan 2015 (Local Time) from KFNT Reporting Station
Clear Clear  
Wind Chill: -14°   Ceiling: Unl
Heat Index: -6°   Visibility: 10mi
Dew Point: -13°   Wind: 18mph
Humidity: 55%   Direction: 70°ENE
Pressure: 29.96"   Gusts: NA
Location:  42.96°N, 83.83°W
Report Text: KFNT 252153Z 07016KT 10SM CLR M06/M13 A2996 RMK AO2 SLP155 T10561133
Loading
Personal Weather Stations






























Interactive Weather Map New forecast layout! Learn more

10-Day Weather Forecast

Advertisements
Track Severe Weather on mobile